Time;durP1;ratioP1;P1;durP2;ratioP2;P2;SDS_P1;SDS_P2;PMS_P1;PMS_P2;Temp;Humidity;BMP_temperature;BMP_pressure;BME280_temperature;BME280_humidity;BME280_pressure;Samples;Min_cycle;Max_cycle;Signal;HPM_P1;HPM_P2
2022/11/03 00:00:01;;;;;;;11.93;2.95;;;;;;;10.61;100.00;101293.94;5229985;28;20037;-66
2022/11/03 00:02:32;;;;;;;16.23;3.90;;;;;;;10.59;100.00;101291.38;5239989;28;20131;-66
2022/11/03 00:06:03;;;;;;;13.70;3.08;;;;;;;10.61;100.00;101275.28;5240994;28;20104;-66
2022/11/03 00:07:55;;;;;;;19.15;3.10;;;;;;;10.64;100.00;101274.19;5239770;28;20045;-66
2022/11/03 00:10:26;;;;;;;13.35;2.70;;;;;;;10.63;100.00;101278.69;5249788;28;20481;-66
2022/11/03 00:12:57;;;;;;;10.73;2.70;;;;;;;10.64;100.00;101271.53;5245755;28;20025;-66
2022/11/03 00:15:29;;;;;;;14.93;2.78;;;;;;;10.62;100.00;101276.13;5245456;28;20443;-66
2022/11/03 00:18:00;;;;;;;11.02;2.55;;;;;;;10.70;100.00;101271.09;5243382;28;20360;-66
2022/11/03 00:20:31;;;;;;;15.55;3.50;;;;;;;10.65;100.00;101263.41;5222600;28;20036;-66
2022/11/03 00:23:02;;;;;;;16.42;3.22;;;;;;;10.65;100.00;101270.56;5238876;28;20025;-66
2022/11/03 00:25:34;;;;;;;12.63;3.17;;;;;;;10.64;100.00;101258.19;5241805;28;20464;-66
2022/11/03 00:28:05;;;;;;;12.98;2.92;;;;;;;10.65;100.00;101263.41;5243760;28;20037;-66
2022/11/03 00:30:38;;;;;;;11.55;2.90;;;;;;;10.68;100.00;101254.34;5241404;28;20025;-66
2022/11/03 00:33:09;;;;;;;15.40;3.17;;;;;;;10.74;100.00;101261.94;5241713;28;20060;-66
2022/11/03 00:35:40;;;;;;;10.20;2.90;;;;;;;10.67;100.00;101247.31;5236265;28;20035;-66
2022/11/03 00:38:12;;;;;;;12.45;2.60;;;;;;;10.69;100.00;101245.38;5250706;28;20032;-66
2022/11/03 00:40:43;;;;;;;12.45;3.25;;;;;;;10.73;100.00;101236.19;5247984;28;20029;-66
2022/11/03 00:43:14;;;;;;;15.05;3.50;;;;;;;10.70;100.00;101229.25;5246586;28;21742;-66
2022/11/03 00:45:46;;;;;;;14.10;3.10;;;;;;;10.69;100.00;101219.53;5248343;28;20032;-66
2022/11/03 00:48:30;;;;;;;13.95;2.40;;;;;;;10.68;100.00;101225.84;5238619;28;20071;-66
2022/11/03 00:51:07;;;;;;;10.18;3.35;;;;;;;10.70;100.00;101220.38;5238674;28;20055;-66
2022/11/03 00:53:39;;;;;;;10.10;2.88;;;;;;;10.81;100.00;101214.28;5243260;28;20025;-66
2022/11/03 00:56:17;;;;;;;19.23;3.55;;;;;;;10.74;100.00;101219.22;5241712;28;20028;-66
2022/11/03 00:58:49;;;;;;;13.05;3.00;;;;;;;10.70;100.00;101210.59;5250104;28;20025;-66
2022/11/03 01:01:26;;;;;;;12.43;2.88;;;;;;;10.77;100.00;101205.66;5247068;28;20116;-66
2022/11/03 01:06:50;;;;;;;10.13;2.45;;;;;;;10.80;100.00;101192.09;5246563;28;20044;-66
2022/11/03 01:09:29;;;;;;;9.77;2.28;;;;;;;10.76;100.00;101199.47;5249134;28;20029;-66
2022/11/03 01:12:02;;;;;;;14.68;2.78;;;;;;;10.76;100.00;101190.63;5254261;28;20017;-66
2022/11/03 01:14:40;;;;;;;11.15;2.40;;;;;;;10.79;100.00;101185.03;5255797;28;20075;-67
2022/11/03 01:17:23;;;;;;;11.35;2.25;;;;;;;10.87;100.00;101192.50;5251599;28;20028;-66
2022/11/03 01:19:55;;;;;;;15.35;2.53;;;;;;;10.78;100.00;101186.00;5250493;28;20442;-66
2022/11/03 01:22:26;;;;;;;13.05;2.95;;;;;;;10.83;100.00;101181.19;5250794;28;20029;-68
2022/11/03 01:24:57;;;;;;;8.93;2.25;;;;;;;10.86;100.00;101180.97;5247284;28;20024;-67
2022/11/03 01:27:29;;;;;;;12.25;2.97;;;;;;;10.83;100.00;101177.66;5248028;28;20454;-66
2022/11/03 01:30:00;;;;;;;14.27;2.67;;;;;;;10.82;100.00;101170.63;5251908;28;20469;-66
2022/11/03 01:32:31;;;;;;;10.88;2.22;;;;;;;10.86;100.00;101164.94;5253610;28;20044;-66
2022/11/03 01:35:03;;;;;;;10.00;2.72;;;;;;;10.85;100.00;101165.91;5252987;28;20451;-66
2022/11/03 01:37:34;;;;;;;14.48;2.72;;;;;;;10.90;100.00;101169.09;5252362;28;20446;-66
2022/11/03 01:40:06;;;;;;;11.77;2.30;;;;;;;10.87;100.00;101157.78;5250389;28;20017;-66
2022/11/03 01:42:37;;;;;;;11.50;2.58;;;;;;;10.89;100.00;101161.19;5242622;28;20503;-66
2022/11/03 01:45:09;;;;;;;10.30;2.53;;;;;;;10.91;100.00;101146.78;5250992;28;20027;-66
2022/11/03 01:47:42;;;;;;;11.93;2.65;;;;;;;10.91;100.00;101143.25;5246467;28;20076;-66
2022/11/03 01:50:17;;;;;;;11.40;2.70;;;;;;;10.92;100.00;101142.28;5240749;28;20124;-66
2022/11/03 01:52:57;;;;;;;10.70;2.33;;;;;;;10.94;100.00;101135.03;5238242;28;20050;-66
2022/11/03 01:55:35;;;;;;;16.65;3.15;;;;;;;10.96;100.00;101138.44;5247009;28;20452;-66
2022/11/03 01:58:12;;;;;;;11.75;2.60;;;;;;;10.93;100.00;101135.97;5248021;28;20036;-66
2022/11/03 02:00:47;;;;;;;9.40;2.47;;;;;;;10.89;100.00;101137.16;5242215;28;20540;-66
2022/11/03 02:03:19;;;;;;;10.02;2.42;;;;;;;10.89;100.00;101137.16;5244604;28;20044;-66
2022/11/03 02:05:51;;;;;;;14.00;3.17;;;;;;;10.89;100.00;101132.69;5243008;28;20471;-66
2022/11/03 02:08:41;;;;;;;12.10;2.47;;;;;;;10.95;100.00;101123.41;5247383;28;20118;-66
2022/11/03 02:14:03;;;;;;;9.88;2.30;;;;;;;10.92;100.00;101120.94;5253263;28;20045;-66
2022/11/03 02:16:34;;;;;;;12.52;2.63;;;;;;;10.90;100.00;101107.69;5249160;28;20032;-66
2022/11/03 02:19:18;;;;;;;10.00;3.50;;;;;;;10.90;100.00;101115.72;5249237;28;20028;-66
2022/11/03 02:22:26;;;;;;;9.57;2.55;;;;;;;10.98;100.00;101109.81;5252337;28;20574;-66
2022/11/03 02:25:27;;;;;;;10.82;2.75;;;;;;;10.93;100.00;101107.47;5251106;28;20041;-66
2022/11/03 02:27:59;;;;;;;12.85;2.67;;;;;;;10.92;100.00;101102.25;5246804;28;20037;-66
2022/11/03 02:30:40;;;;;;;10.38;2.08;;;;;;;10.96;100.00;101095.72;5250977;28;20074;-67
2022/11/03 02:33:24;;;;;;;14.18;2.28;;;;;;;10.89;100.00;101095.34;5251080;28;20826;-66
2022/11/03 02:36:05;;;;;;;12.63;2.78;;;;;;;10.90;100.00;101086.34;5250399;28;20040;-66
2022/11/03 02:38:45;;;;;;;8.32;2.30;;;;;;;10.91;100.00;101081.84;5253253;28;20029;-66
2022/11/03 02:41:17;;;;;;;9.77;2.67;;;;;;;10.90;100.00;101083.66;5251243;28;20029;-66
2022/11/03 02:43:49;;;;;;;9.27;2.30;;;;;;;10.92;100.00;101084.41;5252890;28;20453;-66
2022/11/03 02:46:24;;;;;;;12.50;2.47;;;;;;;10.95;100.00;101067.31;5243588;28;20517;-66
2022/11/03 02:48:56;;;;;;;11.02;2.53;;;;;;;10.91;100.00;101055.16;5234052;28;20044;-66
2022/11/03 02:51:27;;;;;;;11.65;2.67;;;;;;;10.95;100.00;101062.84;5242378;28;20059;-66
2022/11/03 02:54:27;;;;;;;10.98;2.67;;;;;;;10.92;100.00;101057.72;5237819;28;20092;-66
2022/11/03 02:57:03;;;;;;;12.18;2.47;;;;;;;10.91;100.00;101060.50;5227003;28;20104;-66
2022/11/03 02:59:44;;;;;;;11.55;2.25;;;;;;;10.93;100.00;101059.44;5241387;28;20021;-66
2022/11/03 03:02:22;;;;;;;8.25;2.25;;;;;;;10.89;100.00;101043.72;5236378;28;20043;-66
2022/11/03 03:04:59;;;;;;;10.75;2.60;;;;;;;10.87;100.00;101040.34;5237656;28;20546;-66
2022/11/03 03:07:36;;;;;;;9.02;2.40;;;;;;;10.90;100.00;101035.63;5235935;28;20067;-67
2022/11/03 03:10:16;;;;;;;11.88;2.65;;;;;;;10.91;100.00;101023.13;5241744;28;20086;-66
2022/11/03 03:12:51;;;;;;;11.93;2.63;;;;;;;10.90;100.00;101014.25;5237920;28;21190;-66
2022/11/03 03:15:33;;;;;;;12.82;2.20;;;;;;;10.92;100.00;101027.50;5240743;28;20044;-66
2022/11/03 03:18:30;;;;;;;10.77;2.58;;;;;;;10.91;100.00;101026.66;5235797;28;20428;-66
2022/11/03 03:21:15;;;;;;;14.30;2.83;;;;;;;10.92;100.00;101023.00;5238995;28;20123;-67
2022/11/03 03:23:57;;;;;;;9.25;2.53;;;;;;;10.92;100.00;101020.34;5247349;28;20029;-66
2022/11/03 03:26:33;;;;;;;9.80;2.53;;;;;;;10.94;100.00;101004.22;5240821;28;20028;-66
2022/11/03 03:29:14;;;;;;;10.43;2.28;;;;;;;10.96;100.00;101010.28;5241149;28;20446;-66
2022/11/03 03:31:52;;;;;;;9.50;2.53;;;;;;;10.92;100.00;101008.81;5240166;28;20053;-66
2022/11/03 03:34:26;;;;;;;12.68;2.72;;;;;;;10.91;100.00;100999.97;5237758;28;20360;-66
2022/11/03 03:36:58;;;;;;;9.75;2.55;;;;;;;10.95;100.00;101003.25;5240399;28;20037;-66
2022/11/03 03:39:35;;;;;;;13.57;3.10;;;;;;;10.92;100.00;101009.66;5249398;28;20100;-66
2022/11/03 03:42:09;;;;;;;11.38;2.38;;;;;;;10.91;100.00;101001.75;5244008;28;20064;-66
2022/11/03 03:44:42;;;;;;;12.60;2.60;;;;;;;10.93;100.00;100997.16;5245921;28;20029;-66
2022/11/03 03:47:24;;;;;;;9.98;2.90;;;;;;;10.96;100.00;100988.91;5245058;28;20494;-66
2022/11/03 03:49:56;;;;;;;13.63;3.13;;;;;;;10.99;100.00;100978.03;5243213;28;20028;-66
2022/11/03 03:52:28;;;;;;;10.05;2.60;;;;;;;10.96;100.00;100979.09;5238524;28;20045;-66
2022/11/03 03:54:59;;;;;;;10.35;2.58;;;;;;;10.97;100.00;100963.94;5245968;28;20463;-66
2022/11/03 03:57:31;;;;;;;11.88;2.63;;;;;;;10.94;100.00;100965.00;5241006;28;20028;-66
2022/11/03 04:00:03;;;;;;;9.38;2.30;;;;;;;10.96;100.00;100964.91;5244840;28;20058;-66
2022/11/03 04:02:34;;;;;;;10.48;2.17;;;;;;;10.93;100.00;100971.34;5238215;28;20192;-66
2022/11/03 04:05:06;;;;;;;9.90;3.22;;;;;;;10.92;100.00;100961.59;5240991;28;20095;-66
2022/11/03 04:07:46;;;;;;;11.00;2.50;;;;;;;10.94;100.00;100966.84;5231861;28;20036;-66
2022/11/03 04:10:20;;;;;;;11.18;2.60;;;;;;;10.96;100.00;100970.25;5236129;28;20134;-66
2022/11/03 04:24:03;;;;;;;11.35;3.13;;;;;;;10.98;100.00;100944.28;5244872;28;20041;-66
2022/11/03 04:26:34;;;;;;;11.48;2.80;;;;;;;10.99;100.00;100946.00;5239173;28;20255;-66
2022/11/03 04:29:08;;;;;;;12.70;2.55;;;;;;;10.98;100.00;100941.59;5240465;28;20036;-66
2022/11/03 04:31:39;;;;;;;7.85;2.97;;;;;;;11.01;100.00;100922.69;5241266;28;20024;-66
2022/11/03 04:34:11;;;;;;;14.45;2.70;;;;;;;11.05;100.00;100928.66;5243104;28;21017;-66
2022/11/03 04:36:42;;;;;;;8.25;2.00;;;;;;;11.05;100.00;100931.31;5240940;28;20059;-66
2022/11/03 04:39:17;;;;;;;10.10;2.60;;;;;;;11.09;100.00;100936.28;5243371;28;20581;-66
2022/11/03 04:41:48;;;;;;;9.95;2.55;;;;;;;11.06;100.00;100931.16;5248189;28;20144;-66
2022/11/03 04:44:20;;;;;;;10.45;2.28;;;;;;;11.12;100.00;100929.84;5251695;28;20100;-66
2022/11/03 04:46:53;;;;;;;11.43;2.50;;;;;;;11.08;100.00;100931.06;5231996;28;20047;-66
2022/11/03 04:49:24;;;;;;;10.18;2.70;;;;;;;11.07;100.00;100927.53;5249894;28;20059;-66
2022/11/03 04:51:55;;;;;;;10.57;2.45;;;;;;;11.11;100.00;100921.00;5252045;28;20175;-66
2022/11/03 04:54:27;;;;;;;8.82;2.70;;;;;;;11.07;100.00;100916.88;5247829;28;20036;-66
2022/11/03 04:57:03;;;;;;;12.98;2.92;;;;;;;11.12;100.00;100906.69;5250921;28;20486;-66
2022/11/03 04:59:34;;;;;;;13.93;2.90;;;;;;;11.17;100.00;100907.16;5246032;28;20029;-66
2022/11/03 05:02:13;;;;;;;7.95;2.33;;;;;;;11.13;100.00;100899.53;5246797;28;20635;-67
2022/11/03 05:04:44;;;;;;;11.80;2.97;;;;;;;11.15;100.00;100898.41;5241348;28;20029;-66
2022/11/03 05:07:29;;;;;;;7.78;2.05;;;;;;;11.18;100.00;100900.88;5245909;28;20475;-66
2022/11/03 05:10:01;;;;;;;9.30;2.72;;;;;;;11.13;100.00;100897.69;5251267;28;20037;-66
2022/11/03 05:12:32;;;;;;;9.80;2.58;;;;;;;11.15;100.00;100894.91;5250819;28;20035;-66
2022/11/03 05:15:10;;;;;;;12.27;2.88;;;;;;;11.17;100.00;100898.31;5248368;28;20095;-66
2022/11/03 05:17:41;;;;;;;19.00;2.80;;;;;;;11.13;100.00;100888.84;5248994;28;20444;-67
2022/11/03 05:20:29;;;;;;;10.85;2.50;;;;;;;11.13;100.00;100878.16;5246741;28;20040;-66
2022/11/03 05:23:00;;;;;;;9.57;2.67;;;;;;;11.14;100.00;100874.50;5244885;28;20482;-66
2022/11/03 05:25:42;;;;;;;12.25;2.75;;;;;;;11.15;100.00;100876.22;5249859;28;20131;-66
2022/11/03 05:28:24;;;;;;;11.23;2.28;;;;;;;11.18;100.00;100865.31;5243832;28;20107;-66
2022/11/03 05:30:56;;;;;;;13.52;3.13;;;;;;;11.17;100.00;100858.25;5243742;28;20033;-66
2022/11/03 05:33:30;;;;;;;10.57;2.17;;;;;;;11.14;100.00;100862.03;5243980;28;20048;-67
2022/11/03 05:36:12;;;;;;;11.45;3.10;;;;;;;11.21;100.00;100849.03;5246266;28;20159;-66
2022/11/03 05:38:44;;;;;;;10.75;2.65;;;;;;;11.19;100.00;100851.81;5245128;28;20048;-67
2022/11/03 05:41:24;;;;;;;9.57;2.42;;;;;;;11.23;100.00;100848.91;5243552;28;20703;-66
2022/11/03 05:44:01;;;;;;;11.40;3.00;;;;;;;11.25;100.00;100847.81;5248536;28;20128;-66
2022/11/03 05:46:34;;;;;;;11.40;2.42;;;;;;;11.27;100.00;100843.19;5248747;28;20037;-66
2022/11/03 05:49:05;;;;;;;13.27;2.45;;;;;;;11.24;100.00;100838.09;5248376;28;20075;-66
2022/11/03 05:51:40;;;;;;;14.63;3.03;;;;;;;11.26;100.00;100838.81;5246176;28;20581;-66
2022/11/03 05:54:21;;;;;;;8.13;2.15;;;;;;;11.24;100.00;100831.88;5246647;28;20414;-66
2022/11/03 05:56:53;;;;;;;9.52;2.40;;;;;;;11.27;100.00;100820.97;5246138;28;20529;-68
2022/11/03 05:59:28;;;;;;;11.65;2.70;;;;;;;11.25;100.00;100812.25;5245613;28;20036;-66
2022/11/03 06:01:59;;;;;;;9.13;2.35;;;;;;;11.33;100.00;100823.16;5249985;28;20037;-66
2022/11/03 06:04:37;;;;;;;13.63;2.80;;;;;;;11.30;100.00;100823.41;5251901;28;20047;-66
2022/11/03 06:07:22;;;;;;;14.63;3.03;;;;;;;11.29;100.00;100813.69;5248434;28;20423;-66
2022/11/03 06:09:53;;;;;;;;;;;;;;;11.31;100.00;100819.75;5251626;28;20483;-66
2022/11/03 06:12:25;;;;;;;11.18;3.05;;;;;;;11.26;100.00;100808.59;5250005;28;19958;-66
2022/11/03 06:14:56;;;;;;;13.02;2.58;;;;;;;11.28;100.00;100809.34;5251210;28;21318;-66
2022/11/03 06:17:28;;;;;;;12.90;2.47;;;;;;;11.26;100.00;100806.78;5250630;28;20021;-66
2022/11/03 06:19:59;;;;;;;12.13;3.25;;;;;;;11.35;100.00;100802.50;5235971;28;20068;-66
2022/11/03 06:22:35;;;;;;;9.93;2.20;;;;;;;11.30;100.00;100805.56;5249055;28;20029;-66
2022/11/03 06:25:30;;;;;;;9.27;2.70;;;;;;;11.32;100.00;100802.78;5253388;28;20029;-66
2022/11/03 06:28:04;;;;;;;7.38;2.20;;;;;;;11.28;100.00;100791.47;5251136;28;20036;-66
2022/11/03 06:30:40;;;;;;;8.43;2.58;;;;;;;11.28;100.00;100795.97;5247382;28;20029;-66
2022/11/03 06:33:17;;;;;;;10.73;2.58;;;;;;;11.28;100.00;100799.50;5243472;28;20147;-66
2022/11/03 06:35:52;;;;;;;10.80;2.58;;;;;;;11.27;100.00;100791.59;5250138;28;20453;-66
2022/11/03 06:38:28;;;;;;;16.08;2.75;;;;;;;11.27;100.00;100804.94;5251389;28;20115;-66
2022/11/03 06:40:59;;;;;;;13.20;2.83;;;;;;;11.28;100.00;100791.47;5245901;28;20048;-66
2022/11/03 06:43:40;;;;;;;9.23;2.63;;;;;;;11.30;100.00;100788.69;5231690;28;20135;-66
2022/11/03 06:46:18;;;;;;;13.25;2.70;;;;;;;11.32;100.00;100784.91;5247961;28;20033;-66
2022/11/03 06:48:52;;;;;;;8.23;2.42;;;;;;;11.38;100.00;100781.75;5247568;28;20036;-66
2022/11/03 06:51:26;;;;;;;11.23;2.33;;;;;;;11.37;100.00;100788.06;5248143;28;21218;-67
2022/11/03 06:53:59;;;;;;;11.57;2.70;;;;;;;11.34;100.00;100782.13;5246404;28;20041;-66
2022/11/03 06:56:35;;;;;;;12.43;2.60;;;;;;;11.35;100.00;100782.00;5245749;28;20404;-66
2022/11/03 06:59:10;;;;;;;10.43;3.05;;;;;;;11.36;100.00;100782.84;5250595;28;20127;-66
2022/11/03 07:01:45;;;;;;;10.70;2.35;;;;;;;11.46;100.00;100775.78;5244108;28;20055;-66
2022/11/03 07:04:27;;;;;;;;;;;;;;;11.44;100.00;100779.56;5241475;28;20130;-66
2022/11/03 07:07:01;;;;;;;9.23;2.20;;;;;;;11.43;100.00;100776.03;5248646;28;19962;-67
2022/11/03 07:09:32;;;;;;;9.48;2.25;;;;;;;11.42;100.00;100765.47;5244470;28;20035;-66
2022/11/03 07:12:13;;;;;;;9.90;2.83;;;;;;;11.40;100.00;100762.91;5243948;28;20033;-66
2022/11/03 07:14:45;;;;;;;9.50;3.25;;;;;;;11.41;100.00;100764.63;5247439;28;20024;-66
2022/11/03 07:17:20;;;;;;;9.77;2.10;;;;;;;11.47;100.00;100761.47;5247048;28;20021;-66
2022/11/03 07:19:52;;;;;;;13.98;2.60;;;;;;;11.49;100.00;100769.34;5248207;28;20421;-66
2022/11/03 07:22:25;;;;;;;11.43;2.92;;;;;;;11.47;100.00;100760.63;5246685;28;20033;-66
2022/11/03 07:25:02;;;;;;;7.97;2.10;;;;;;;11.53;100.00;100763.63;5246127;28;20024;-65
2022/11/03 07:27:37;;;;;;;8.70;2.53;;;;;;;11.55;100.00;100760.81;5242509;28;20024;-65
2022/11/03 07:30:23;;;;;;;9.77;2.88;;;;;;;11.56;100.00;100750.03;5243375;28;20025;-65
2022/11/03 07:33:01;;;;;;;8.80;2.78;;;;;;;11.58;100.00;100741.84;5234575;28;20494;-65
2022/11/03 07:35:40;;;;;;;11.40;2.28;;;;;;;11.61;100.00;100744.28;5238629;28;20218;-66
2022/11/03 07:38:19;;;;;;;8.63;2.30;;;;;;;11.61;100.00;100738.94;5238617;28;20025;-66
2022/11/03 07:40:52;;;;;;;11.77;2.60;;;;;;;11.64;100.00;100736.03;5240327;28;20048;-66
2022/11/03 07:43:30;;;;;;;10.77;2.10;;;;;;;11.64;100.00;100738.69;5238620;28;20189;-67
2022/11/03 07:46:03;;;;;;;9.93;2.33;;;;;;;11.66;100.00;100739.41;5235576;28;21368;-68
2022/11/03 07:48:44;;;;;;;8.77;2.20;;;;;;;11.69;100.00;100749.00;5239847;28;20036;-67
2022/11/03 07:51:23;;;;;;;9.48;2.20;;;;;;;11.71;100.00;100755.91;5240588;28;20390;-67
2022/11/03 07:54:18;;;;;;;7.45;2.83;;;;;;;11.72;100.00;100746.91;5240407;28;20033;-67
2022/11/03 07:56:56;;;;;;;15.77;2.88;;;;;;;11.72;100.00;100749.59;5240751;28;20117;-67
2022/11/03 07:59:30;;;;;;;11.80;2.90;;;;;;;11.74;100.00;100752.16;5237079;28;20054;-67
2022/11/03 08:02:31;;;;;;;12.10;2.55;;;;;;;11.77;100.00;100750.06;5248414;28;20025;-73
2022/11/03 08:05:03;;;;;;;12.70;2.50;;;;;;;11.76;100.00;100742.16;5251711;28;20136;-73
2022/11/03 08:07:34;;;;;;;12.32;2.55;;;;;;;11.82;100.00;100738.13;5258587;28;20033;-73
2022/11/03 08:10:06;;;;;;;12.23;2.78;;;;;;;11.84;100.00;100733.50;5256960;28;20036;-73
2022/11/03 08:12:38;;;;;;;6.85;1.90;;;;;;;11.89;100.00;100728.59;5259319;28;20112;-73
2022/11/03 08:15:10;;;;;;;9.63;2.38;;;;;;;11.88;100.00;100733.09;5255051;28;20505;-72
2022/11/03 08:17:41;;;;;;;8.68;2.47;;;;;;;12.00;100.00;100719.72;5244358;28;20036;-72
2022/11/03 08:20:12;;;;;;;12.18;2.60;;;;;;;11.94;100.00;100713.91;5244933;28;20028;-73
2022/11/03 08:22:44;;;;;;;10.15;2.65;;;;;;;11.99;100.00;100702.00;5249463;28;20032;-72
2022/11/03 08:25:15;;;;;;;9.82;2.60;;;;;;;12.03;100.00;100690.06;5251723;28;20391;-73
2022/11/03 08:27:46;;;;;;;9.35;2.30;;;;;;;12.00;100.00;100679.63;5247210;28;20487;-73
2022/11/03 08:30:18;;;;;;;9.10;2.28;;;;;;;12.12;100.00;100673.22;5251309;28;20834;-73
2022/11/03 08:32:49;;;;;;;12.02;2.63;;;;;;;12.09;100.00;100673.47;5247771;28;20120;-73
2022/11/03 08:35:20;;;;;;;11.50;2.53;;;;;;;12.10;100.00;100668.00;5247636;28;20651;-72
2022/11/03 08:37:51;;;;;;;9.48;2.80;;;;;;;12.15;100.00;100660.41;5256382;28;20024;-73
2022/11/03 08:40:23;;;;;;;9.70;2.33;;;;;;;12.20;100.00;100656.53;5251743;28;20185;-73
2022/11/03 08:42:54;;;;;;;8.48;2.33;;;;;;;12.23;100.00;100638.34;5249957;28;20028;-72
2022/11/03 08:45:25;;;;;;;12.68;3.88;;;;;;;12.22;100.00;100631.34;5252853;28;20059;-73
2022/11/03 08:47:57;;;;;;;11.45;3.22;;;;;;;12.26;100.00;100624.72;5254885;28;20033;-72
2022/11/03 08:50:29;;;;;;;12.05;3.25;;;;;;;12.33;100.00;100622.34;5255574;28;20051;-72
2022/11/03 08:53:00;;;;;;;9.95;3.35;;;;;;;12.33;100.00;100614.31;5258536;28;20455;-73
2022/11/03 08:55:31;;;;;;;9.18;2.00;;;;;;;12.41;100.00;100619.03;5251535;28;20033;-73
2022/11/03 08:58:02;;;;;;;7.32;2.25;;;;;;;12.46;100.00;100614.09;5250202;28;20028;-73
2022/11/03 09:00:35;;;;;;;8.98;2.08;;;;;;;12.52;100.00;100600.16;5251015;28;20071;-73
2022/11/03 09:03:06;;;;;;;10.82;2.58;;;;;;;12.56;100.00;100596.25;5251299;28;20033;-72
2022/11/03 09:05:37;;;;;;;7.38;2.13;;;;;;;12.62;100.00;100579.66;5251660;28;20036;-72
2022/11/03 09:08:09;;;;;;;6.90;1.98;;;;;;;12.71;100.00;100584.19;5247468;28;20435;-72
2022/11/03 09:10:40;;;;;;;9.63;1.92;;;;;;;12.78;100.00;100575.59;5250899;28;20467;-74
2022/11/03 09:13:11;;;;;;;8.48;2.45;;;;;;;12.79;100.00;100569.25;5248980;28;20020;-73
2022/11/03 09:15:43;;;;;;;9.68;2.28;;;;;;;12.83;100.00;100563.50;5245328;28;20621;-67
2022/11/03 09:18:15;;;;;;;7.18;1.80;;;;;;;12.84;100.00;100554.47;5245654;28;20527;-67
2022/11/03 09:20:46;;;;;;;9.25;2.03;;;;;;;12.91;100.00;100536.84;5254285;28;20033;-68
2022/11/03 09:23:17;;;;;;;10.23;2.08;;;;;;;12.95;100.00;100524.88;5246839;28;20021;-66
2022/11/03 09:25:48;;;;;;;11.20;2.40;;;;;;;12.98;100.00;100520.22;5251424;28;20035;-73
2022/11/03 09:28:20;;;;;;;8.23;2.00;;;;;;;13.01;100.00;100503.88;5251433;28;20083;-73
2022/11/03 09:30:51;;;;;;;7.40;1.95;;;;;;;13.08;100.00;100505.84;5248449;28;20024;-73
2022/11/03 09:33:22;;;;;;;7.28;1.88;;;;;;;13.09;99.58;100502.16;5253211;28;20025;-74
2022/11/03 09:35:53;;;;;;;8.00;2.00;;;;;;;13.14;100.00;100494.56;5249255;28;20045;-74
2022/11/03 09:38:25;;;;;;;7.45;2.05;;;;;;;13.18;100.00;100488.94;5243093;28;20067;-67
2022/11/03 09:40:56;;;;;;;10.38;2.38;;;;;;;13.20;99.45;100484.28;5251885;28;20025;-67
2022/11/03 09:43:27;;;;;;;11.93;3.22;;;;;;;13.23;100.00;100482.16;5252518;28;20115;-67
2022/11/03 09:45:59;;;;;;;11.85;2.15;;;;;;;13.27;100.00;100474.66;5255103;28;20064;-66
2022/11/03 09:48:30;;;;;;;7.22;1.77;;;;;;;13.27;99.41;100470.16;5249524;28;20025;-66
2022/11/03 09:51:01;;;;;;;7.10;1.85;;;;;;;13.26;98.31;100473.81;5252506;28;20029;-72
2022/11/03 09:53:33;;;;;;;7.00;1.92;;;;;;;13.29;98.82;100464.66;5253242;28;20053;-74
2022/11/03 09:56:04;;;;;;;6.68;1.88;;;;;;;13.29;97.32;100456.63;5252529;28;20406;-72
2022/11/03 09:58:36;;;;;;;6.55;2.00;;;;;;;13.29;98.28;100456.63;5250428;28;20036;-72
2022/11/03 10:01:10;;;;;;;8.52;2.25;;;;;;;13.29;98.50;100457.44;5249923;28;20395;-73
2022/11/03 10:03:41;;;;;;;10.10;1.90;;;;;;;13.30;97.97;100452.97;5250196;28;20056;-72
2022/11/03 10:06:12;;;;;;;9.77;2.13;;;;;;;13.32;97.00;100445.63;5255107;28;20033;-72
2022/11/03 10:08:46;;;;;;;9.48;1.98;;;;;;;13.34;96.54;100451.69;5252705;28;20144;-72
2022/11/03 10:11:17;;;;;;;10.68;2.20;;;;;;;13.31;96.64;100441.28;5245761;28;20075;-72
2022/11/03 10:13:53;;;;;;;7.97;1.85;;;;;;;13.33;98.86;100440.13;5252512;28;20067;-72
2022/11/03 10:16:26;;;;;;;7.38;1.80;;;;;;;13.30;98.39;100426.16;5253125;28;20155;-72
2022/11/03 10:18:59;;;;;;;6.00;1.85;;;;;;;13.29;97.94;100427.16;5247410;28;20141;-72
2022/11/03 10:21:33;;;;;;;6.72;2.08;;;;;;;13.30;96.79;100418.13;5252704;28;20025;-73
2022/11/03 10:24:04;;;;;;;9.50;2.10;;;;;;;13.28;97.93;100420.91;5250019;28;20047;-72
2022/11/03 10:26:43;;;;;;;7.28;1.88;;;;;;;13.29;98.13;100416.44;5254279;28;20033;-73
2022/11/03 10:29:24;;;;;;;7.82;2.00;;;;;;;13.30;97.14;100412.78;5248406;28;20058;-72
2022/11/03 10:31:57;;;;;;;11.13;2.97;;;;;;;13.32;97.23;100402.75;5250358;28;20025;-73
2022/11/03 10:34:36;;;;;;;8.67;1.83;;;;;;;13.36;98.55;100406.00;5249552;28;20082;-73
2022/11/03 10:37:21;;;;;;;8.35;1.70;;;;;;;13.39;97.48;100398.50;5250215;28;20279;-73
2022/11/03 10:39:54;;;;;;;9.63;2.08;;;;;;;13.42;96.07;100390.16;5247636;28;20485;-73
2022/11/03 10:42:30;;;;;;;8.90;1.83;;;;;;;13.45;96.21;100384.50;5248343;28;21236;-73
2022/11/03 10:45:17;;;;;;;7.70;1.70;;;;;;;13.51;96.09;100394.63;5247691;28;20021;-73
2022/11/03 10:48:00;;;;;;;8.13;2.25;;;;;;;13.58;96.53;100383.34;5250330;28;20033;-73
2022/11/03 10:50:31;;;;;;;10.07;2.67;;;;;;;13.64;94.94;100383.59;5251341;28;20028;-73
2022/11/03 10:53:03;;;;;;;5.82;1.80;;;;;;;13.70;93.82;100385.66;5250330;28;20049;-73
2022/11/03 10:55:35;;;;;;;10.88;2.05;;;;;;;13.80;93.34;100385.59;5254057;28;20028;-73
2022/11/03 10:58:06;;;;;;;7.60;2.08;;;;;;;13.83;93.66;100374.59;5248883;28;20413;-73
2022/11/03 11:00:40;;;;;;;8.43;1.75;;;;;;;13.85;92.06;100361.88;5245610;28;20040;-73
2022/11/03 11:03:12;;;;;;;;;;;;;;;13.90;96.15;100366.78;5243945;28;20139;-73
2022/11/03 11:05:47;;;;;;;6.97;1.80;;;;;;;13.98;94.23;100363.34;5253854;28;19913;-73
2022/11/03 11:08:22;;;;;;;5.90;1.73;;;;;;;14.03;92.50;100363.75;5248309;28;20029;-73
2022/11/03 11:10:53;;;;;;;8.40;2.25;;;;;;;14.07;90.53;100360.59;5243109;28;20470;-73
2022/11/03 11:13:26;;;;;;;6.70;1.80;;;;;;;14.06;91.60;100356.22;5252589;28;20028;-74
2022/11/03 11:16:00;;;;;;;8.13;2.10;;;;;;;14.12;90.75;100354.78;5249107;28;20490;-73
2022/11/03 11:18:31;;;;;;;6.07;1.70;;;;;;;14.14;90.92;100346.59;5253525;28;20108;-73
2022/11/03 11:21:15;;;;;;;7.85;1.80;;;;;;;14.18;91.74;100347.97;5248543;28;20045;-73
2022/11/03 11:23:48;;;;;;;5.57;2.15;;;;;;;14.13;91.64;100335.00;5243789;28;20348;-73
2022/11/03 11:26:25;;;;;;;8.77;1.95;;;;;;;14.19;90.85;100334.41;5251009;28;20054;-74
2022/11/03 11:29:08;;;;;;;6.18;2.08;;;;;;;14.24;91.26;100332.06;5252816;28;20110;-74
2022/11/03 11:31:40;;;;;;;6.10;1.58;;;;;;;14.24;91.02;100318.66;5247654;28;20028;-74
2022/11/03 11:34:18;;;;;;;5.65;1.70;;;;;;;14.32;89.13;100309.84;5250230;28;20513;-74
2022/11/03 11:36:56;;;;;;;6.20;1.65;;;;;;;14.36;90.44;100302.31;5246498;28;20052;-67
2022/11/03 11:39:27;;;;;;;7.55;1.73;;;;;;;14.39;88.78;100297.50;5243722;28;20040;-74
2022/11/03 11:42:11;;;;;;;7.10;1.70;;;;;;;14.42;89.18;100282.91;5244926;28;20098;-67
2022/11/03 11:44:42;;;;;;;9.23;2.13;;;;;;;14.46;88.78;100278.94;5247299;28;20020;-67
2022/11/03 11:47:27;;;;;;;10.65;2.42;;;;;;;14.47;89.58;100283.28;5248901;28;20044;-66
2022/11/03 11:50:05;;;;;;;5.75;2.00;;;;;;;14.52;88.09;100268.41;5250628;28;20063;-67
2022/11/03 11:52:50;;;;;;;10.18;2.00;;;;;;;14.54;89.00;100252.16;5245619;28;20053;-67
2022/11/03 11:55:40;;;;;;;7.13;1.90;;;;;;;14.58;88.23;100232.06;5247350;28;20124;-67
2022/11/03 11:58:17;;;;;;;10.68;2.53;;;;;;;14.57;88.47;100225.00;5252537;28;20696;-67
2022/11/03 12:01:00;;;;;;;6.60;1.85;;;;;;;14.58;87.34;100224.00;5240946;28;20033;-67
2022/11/03 12:03:42;;;;;;;5.88;1.83;;;;;;;14.61;86.83;100210.28;5228996;28;20140;-67
2022/11/03 12:06:14;;;;;;;5.82;1.50;;;;;;;14.66;88.21;100210.63;5249054;28;20471;-67